Maple Grove, Canada
Current Conditions -  °F | °C
As of 11:00 PM on Friday 21 Nov 2014 (Local Time) from CYUL Reporting Station
Broken Clouds Broken Clouds  
Wind Chill:   Ceiling: 16000
Heat Index: 19°   Visibility: 15mi
Dew Point:   Wind: 9mph
Humidity: 63%   Direction: 230°SW
Pressure: 30.32"   Gusts: NA
Location:  45.32°N, 73.85°W
Report Text: CYUL 220400Z 23008KT 15SM FEW045 BKN160 M07/M13 A3032 RMK SC1AC6 SC TR SLP270
Loading
Personal Weather Stations






























Interactive Weather Map New forecast layout! Learn more

10-Day Weather Forecast

Advertisements
Track Severe Weather on mobile